Time;durP1;ratioP1;P1;durP2;ratioP2;P2;SDS_P1;SDS_P2;PMS_P1;PMS_P2;Temp;Humidity;BMP_temperature;BMP_pressure;BME280_temperature;BME280_humidity;BME280_pressure;Samples;Min_cycle;Max_cycle;Signal;HPM_P1;HPM_P2
2023/03/17 00:00:13;;;;;;;1.50;1.20;;;9.40;93.40;;;;;;5052604;28;20501;-74
2023/03/17 00:02:41;;;;;;;1.50;1.10;;;9.40;93.20;;;;;;5065733;28;20524;-74
2023/03/17 00:05:16;;;;;;;1.50;1.13;;;9.40;93.40;;;;;;5049432;28;20462;-74
2023/03/17 00:07:43;;;;;;;1.50;1.10;;;9.40;93.50;;;;;;5057580;28;20487;-74
2023/03/17 00:10:16;;;;;;;1.50;1.20;;;9.40;93.50;;;;;;5058219;28;20501;-75
2023/03/17 00:12:43;;;;;;;1.50;1.20;;;9.40;93.70;;;;;;5062301;28;20484;-75
2023/03/17 00:15:13;;;;;;;1.50;1.20;;;9.40;93.80;;;;;;5067065;28;20766;-74
2023/03/17 00:17:41;;;;;;;1.50;1.10;;;9.40;93.90;;;;;;5070456;28;20488;-74
2023/03/17 00:20:15;;;;;;;1.50;1.10;;;9.40;94.00;;;;;;5060477;28;20484;-75
2023/03/17 00:22:43;;;;;;;1.60;1.30;;;9.40;94.10;;;;;;5065899;28;20492;-76
2023/03/17 00:25:18;;;;;;;1.50;1.23;;;9.40;94.00;;;;;;5059145;28;20886;-74
2023/03/17 00:27:45;;;;;;;1.50;1.20;;;9.40;94.10;;;;;;5061158;28;20485;-74
2023/03/17 00:30:14;;;;;;;1.50;1.10;;;9.40;94.10;;;;;;5061578;28;20481;-74
2023/03/17 00:32:41;;;;;;;1.50;1.20;;;9.40;94.20;;;;;;5070358;28;20499;-75
2023/03/17 00:35:16;;;;;;;1.50;1.10;;;9.40;94.20;;;;;;5057491;28;20466;-74
2023/03/17 00:37:44;;;;;;;1.50;1.10;;;9.40;94.20;;;;;;5063269;28;20480;-74
2023/03/17 00:40:16;;;;;;;3.20;3.00;;;9.40;94.30;;;;;;5051048;28;20540;-74
2023/03/17 00:42:43;;;;;;;1.50;1.10;;;9.40;94.50;;;;;;5062124;28;20493;-76
2023/03/17 00:45:11;;;;;;;1.50;1.10;;;9.30;94.80;;;;;;5054334;28;20490;-74
2023/03/17 00:47:40;;;;;;;1.50;1.10;;;9.30;94.90;;;;;;5060219;28;20489;-74
2023/03/17 00:50:10;;;;;;;1.50;1.17;;;9.30;94.90;;;;;;5053569;28;20486;-74
2023/03/17 00:52:38;;;;;;;1.50;1.20;;;9.30;94.90;;;;;;5060551;28;20548;-75
2023/03/17 00:55:06;;;;;;;1.50;1.20;;;9.30;94.70;;;;;;5061647;28;20540;-74
2023/03/17 00:57:34;;;;;;;1.50;1.10;;;9.30;94.90;;;;;;5061009;28;20560;-74
2023/03/17 01:00:03;;;;;;;1.50;1.17;;;9.30;94.80;;;;;;5052762;28;20882;-74
2023/03/17 01:02:29;;;;;;;1.50;1.10;;;9.30;94.90;;;;;;5065648;28;20516;-74
2023/03/17 01:04:59;;;;;;;1.50;1.27;;;9.30;95.10;;;;;;5057869;28;20468;-74
2023/03/17 01:07:27;;;;;;;1.50;1.17;;;9.30;95.20;;;;;;5062430;28;20914;-74
2023/03/17 01:09:54;;;;;;;1.50;1.10;;;9.30;95.20;;;;;;5057922;28;20485;-74
2023/03/17 01:12:20;;;;;;;1.50;1.20;;;9.30;95.20;;;;;;5063445;28;20491;-75
2023/03/17 01:14:47;;;;;;;1.50;1.23;;;9.30;95.30;;;;;;5063667;28;20846;-74
2023/03/17 01:17:17;;;;;;;1.50;1.20;;;9.30;95.20;;;;;;5053173;28;20622;-74
2023/03/17 01:19:44;;;;;;;1.50;1.17;;;9.30;95.30;;;;;;5064810;28;20542;-76
2023/03/17 01:22:12;;;;;;;1.50;1.10;;;9.30;95.40;;;;;;5061947;28;20481;-75
2023/03/17 01:24:39;;;;;;;1.50;1.10;;;9.30;95.10;;;;;;5056304;28;20462;-74
2023/03/17 01:27:07;;;;;;;1.50;1.17;;;9.20;95.10;;;;;;5058757;28;20509;-75
2023/03/17 01:29:33;;;;;;;1.50;1.20;;;9.20;95.10;;;;;;5055992;28;20778;-74
2023/03/17 01:32:00;;;;;;;1.50;1.13;;;9.20;95.30;;;;;;5059913;28;20511;-75
2023/03/17 01:34:27;;;;;;;1.50;1.20;;;9.10;95.50;;;;;;5061797;28;20458;-75
2023/03/17 01:36:54;;;;;;;1.50;1.17;;;9.10;95.60;;;;;;5055817;28;20913;-74
2023/03/17 01:39:22;;;;;;;1.50;1.10;;;9.10;95.60;;;;;;5061457;28;20481;-74
2023/03/17 01:41:49;;;;;;;3.60;2.53;;;9.00;95.80;;;;;;5062387;28;20481;-74
2023/03/17 01:44:18;;;;;;;1.50;1.10;;;9.00;96.00;;;;;;5056206;28;20469;-74
2023/03/17 01:46:46;;;;;;;1.50;1.10;;;9.00;96.00;;;;;;5052563;28;20484;-75
2023/03/17 01:49:17;;;;;;;1.50;1.10;;;9.00;96.10;;;;;;5063054;28;20581;-75
2023/03/17 01:51:57;;;;;;;1.50;1.10;;;8.90;96.30;;;;;;5056551;28;20476;-74
2023/03/17 01:54:34;;;;;;;1.50;1.20;;;8.90;96.40;;;;;;5064196;28;20458;-74
2023/03/17 01:57:08;;;;;;;1.50;1.20;;;8.90;96.40;;;;;;5055018;28;20480;-74
2023/03/17 01:59:39;;;;;;;1.50;1.10;;;8.90;96.50;;;;;;5053333;28;20548;-73
2023/03/17 02:02:09;;;;;;;1.50;1.10;;;8.90;96.30;;;;;;5058908;28;20874;-75
2023/03/17 02:04:37;;;;;;;1.83;1.73;;;8.90;96.30;;;;;;5062597;28;20458;-74
2023/03/17 02:07:05;;;;;;;1.50;1.10;;;8.90;96.30;;;;;;5045334;28;20839;-75
2023/03/17 02:09:34;;;;;;;1.60;1.40;;;8.90;96.30;;;;;;5060637;28;21018;-74
2023/03/17 02:12:02;;;;;;;1.50;1.20;;;8.90;96.20;;;;;;5067185;28;20484;-75
2023/03/17 02:14:29;;;;;;;1.50;1.20;;;8.90;96.30;;;;;;5063487;28;20477;-75
2023/03/17 02:16:56;;;;;;;1.50;1.20;;;8.80;96.40;;;;;;5064591;28;20489;-74
2023/03/17 02:19:23;;;;;;;1.50;1.20;;;8.80;96.40;;;;;;5068900;28;20874;-74
2023/03/17 02:21:53;;;;;;;1.50;1.20;;;8.80;96.50;;;;;;5064923;28;20487;-74
2023/03/17 02:24:26;;;;;;;1.50;1.20;;;8.80;96.70;;;;;;5069823;28;20824;-76
2023/03/17 02:26:55;;;;;;;1.50;1.20;;;8.80;96.60;;;;;;5054316;28;20846;-74
2023/03/17 02:29:23;;;;;;;1.50;1.20;;;8.80;96.60;;;;;;5066105;28;20974;-76
2023/03/17 02:31:50;;;;;;;1.50;1.20;;;8.70;96.60;;;;;;5064986;28;20945;-74
2023/03/17 02:34:16;;;;;;;1.50;1.20;;;8.70;96.60;;;;;;5069283;28;20453;-75
2023/03/17 02:36:43;;;;;;;1.50;1.17;;;8.70;96.50;;;;;;5058255;28;20480;-76
2023/03/17 02:39:12;;;;;;;1.50;1.27;;;8.80;96.50;;;;;;5072163;28;20553;-74
2023/03/17 02:41:39;;;;;;;1.50;1.20;;;8.80;96.30;;;;;;5056002;28;20602;-75
2023/03/17 02:44:06;;;;;;;1.50;1.20;;;8.80;96.30;;;;;;5072274;28;20837;-74
2023/03/17 02:46:32;;;;;;;1.53;1.30;;;8.80;96.30;;;;;;5061385;28;20794;-74
2023/03/17 02:49:00;;;;;;;1.50;1.20;;;8.70;96.40;;;;;;5070839;28;20461;-75
2023/03/17 02:51:27;;;;;;;1.50;1.20;;;8.70;96.30;;;;;;5060859;28;20522;-75
2023/03/17 02:53:53;;;;;;;1.50;1.20;;;8.70;96.30;;;;;;5072187;28;20840;-75
2023/03/17 02:56:21;;;;;;;1.50;1.30;;;8.70;96.40;;;;;;5059684;28;20495;-77
2023/03/17 02:58:48;;;;;;;1.50;1.20;;;8.70;96.40;;;;;;5074021;28;20472;-75
2023/03/17 03:01:15;;;;;;;1.50;1.20;;;8.70;96.40;;;;;;5060126;28;20489;-75
2023/03/17 03:03:42;;;;;;;1.60;1.27;;;8.70;96.50;;;;;;5074042;28;20469;-74
2023/03/17 03:06:09;;;;;;;1.50;1.10;;;8.70;96.50;;;;;;5053547;28;20489;-76
2023/03/17 03:08:35;;;;;;;1.50;1.13;;;8.60;96.60;;;;;;5074985;28;20477;-74
2023/03/17 03:11:03;;;;;;;1.50;1.10;;;8.60;96.70;;;;;;5055698;28;20852;-74
2023/03/17 03:13:32;;;;;;;1.50;1.20;;;8.60;96.90;;;;;;5071501;28;20458;-74
2023/03/17 03:15:59;;;;;;;1.50;1.20;;;8.60;96.90;;;;;;5056672;28;20734;-74
2023/03/17 03:18:26;;;;;;;1.50;1.30;;;8.60;96.90;;;;;;5075159;28;20470;-75
2023/03/17 03:20:52;;;;;;;1.50;1.10;;;8.60;96.90;;;;;;5055917;28;20481;-75
2023/03/17 03:23:19;;;;;;;1.57;1.30;;;8.60;96.90;;;;;;5073525;28;20864;-75
2023/03/17 03:25:46;;;;;;;1.50;1.40;;;8.60;96.70;;;;;;5062376;28;20457;-75
2023/03/17 03:28:13;;;;;;;1.50;1.20;;;8.50;96.90;;;;;;5049965;28;20497;-75
2023/03/17 03:30:43;;;;;;;1.57;1.20;;;8.50;96.90;;;;;;5061670;28;20485;-74
2023/03/17 03:33:12;;;;;;;1.50;1.20;;;8.50;96.90;;;;;;5069808;28;20480;-74
2023/03/17 03:35:39;;;;;;;1.50;1.20;;;8.50;97.10;;;;;;5060398;28;20454;-74
2023/03/17 03:38:06;;;;;;;1.50;1.20;;;8.50;97.20;;;;;;5047138;28;20476;-74
2023/03/17 03:40:33;;;;;;;1.50;1.20;;;8.50;97.30;;;;;;5064806;28;20485;-74
2023/03/17 03:43:00;;;;;;;1.50;1.20;;;8.40;97.20;;;;;;5049141;28;20486;-74
2023/03/17 03:45:27;;;;;;;1.50;1.20;;;8.50;97.20;;;;;;5065672;28;20457;-74
2023/03/17 03:47:56;;;;;;;1.53;1.20;;;8.40;97.20;;;;;;5060860;28;20474;-74
2023/03/17 03:50:23;;;;;;;1.50;1.20;;;8.40;97.30;;;;;;5065050;28;20485;-75
2023/03/17 03:52:50;;;;;;;1.53;1.20;;;8.40;97.40;;;;;;5060271;28;20485;-74
2023/03/17 03:55:17;;;;;;;1.50;1.20;;;8.40;97.50;;;;;;5066364;28;20840;-74
2023/03/17 03:57:44;;;;;;;1.50;1.20;;;8.40;97.50;;;;;;5068713;28;20487;-76
2023/03/17 04:00:13;;;;;;;3.93;3.63;;;8.40;97.50;;;;;;5061656;28;20493;-75
2023/03/17 04:02:40;;;;;;;1.53;1.20;;;8.40;97.50;;;;;;5070402;28;20589;-74
2023/03/17 04:05:09;;;;;;;1.57;1.30;;;8.40;97.50;;;;;;5066632;28;20508;-74
2023/03/17 04:07:36;;;;;;;1.50;1.20;;;8.40;97.40;;;;;;5067673;28;20530;-74
2023/03/17 04:10:03;;;;;;;2.70;2.50;;;8.40;97.30;;;;;;5065794;28;20854;-74
2023/03/17 04:12:30;;;;;;;1.50;1.20;;;8.40;97.20;;;;;;5068841;28;20603;-75
2023/03/17 04:14:56;;;;;;;1.53;1.30;;;8.40;97.10;;;;;;5061086;28;20465;-75
2023/03/17 04:17:23;;;;;;;1.60;1.30;;;8.40;97.20;;;;;;5051700;28;20488;-74
2023/03/17 04:19:51;;;;;;;1.57;1.30;;;8.40;97.30;;;;;;5066002;28;20473;-74
2023/03/17 04:22:19;;;;;;;1.60;1.40;;;8.40;97.40;;;;;;5054396;28;20481;-74
2023/03/17 04:24:46;;;;;;;1.50;1.20;;;8.40;97.40;;;;;;5062364;28;20466;-74
2023/03/17 04:27:14;;;;;;;1.50;1.20;;;8.40;97.50;;;;;;5048487;28;20481;-74
2023/03/17 04:29:42;;;;;;;1.53;1.20;;;8.40;97.40;;;;;;5061441;28;20477;-75
2023/03/17 04:32:10;;;;;;;1.50;1.20;;;8.40;97.60;;;;;;5057673;28;20480;-74
2023/03/17 04:34:37;;;;;;;1.50;1.20;;;8.40;97.70;;;;;;5067183;28;20458;-74
2023/03/17 04:37:04;;;;;;;1.60;1.40;;;8.40;97.70;;;;;;5057652;28;20518;-75
2023/03/17 04:39:32;;;;;;;1.60;1.40;;;8.40;97.70;;;;;;5068293;28;20507;-77
2023/03/17 04:41:59;;;;;;;1.50;1.20;;;8.40;97.70;;;;;;5054438;28;20535;-74
2023/03/17 04:44:26;;;;;;;1.80;1.70;;;8.40;97.80;;;;;;5062143;28;20560;-74
2023/03/17 04:46:52;;;;;;;1.53;1.27;;;8.40;97.70;;;;;;5056869;28;20565;-75
2023/03/17 04:49:20;;;;;;;1.50;1.20;;;8.30;97.80;;;;;;5067599;28;20484;-74
2023/03/17 04:51:46;;;;;;;1.50;1.20;;;8.30;97.70;;;;;;5053712;28;21072;-75
2023/03/17 04:54:14;;;;;;;1.50;1.20;;;8.30;97.70;;;;;;5063327;28;20469;-75
2023/03/17 04:56:42;;;;;;;1.50;1.20;;;8.30;97.70;;;;;;5055507;28;20487;-74
2023/03/17 04:59:09;;;;;;;1.53;1.20;;;8.30;97.60;;;;;;5060124;28;20468;-74
2023/03/17 05:01:36;;;;;;;1.53;1.20;;;8.30;97.60;;;;;;5057989;28;20607;-74
2023/03/17 05:04:03;;;;;;;1.50;1.20;;;8.30;97.60;;;;;;5066140;28;20458;-74
2023/03/17 05:06:30;;;;;;;1.50;1.20;;;8.30;97.60;;;;;;5052784;28;20488;-75
2023/03/17 05:08:57;;;;;;;1.50;1.10;;;8.40;97.60;;;;;;5060937;28;20477;-74
2023/03/17 05:11:24;;;;;;;1.90;1.80;;;8.40;97.50;;;;;;5053182;28;20561;-74
2023/03/17 05:13:52;;;;;;;1.50;1.20;;;8.40;97.50;;;;;;5067016;28;20450;-74
2023/03/17 05:16:18;;;;;;;1.53;1.20;;;8.40;97.40;;;;;;5055555;28;20477;-74
2023/03/17 05:18:45;;;;;;;1.60;1.50;;;8.30;97.40;;;;;;5066797;28;20489;-74
2023/03/17 05:21:12;;;;;;;1.50;1.20;;;8.30;97.40;;;;;;5057398;28;20496;-74
2023/03/17 05:23:40;;;;;;;3.10;2.90;;;8.30;97.50;;;;;;5074636;28;20496;-73
2023/03/17 05:26:07;;;;;;;1.50;1.20;;;8.30;97.40;;;;;;5056062;28;20466;-74
2023/03/17 05:28:34;;;;;;;1.57;1.37;;;8.30;97.50;;;;;;5060517;28;20465;-74
2023/03/17 05:31:02;;;;;;;1.50;1.20;;;8.30;97.70;;;;;;5054439;28;20481;-74
2023/03/17 05:33:29;;;;;;;1.50;1.20;;;8.30;97.70;;;;;;5059468;28;20469;-74
2023/03/17 05:35:56;;;;;;;1.50;1.30;;;8.30;97.80;;;;;;5055891;28;20993;-74
2023/03/17 05:38:23;;;;;;;1.57;1.23;;;8.30;97.80;;;;;;5064063;28;20521;-74
2023/03/17 05:40:51;;;;;;;1.50;1.20;;;8.30;98.00;;;;;;5054034;28;20891;-74
2023/03/17 05:43:18;;;;;;;1.50;1.20;;;8.30;97.90;;;;;;5076124;28;20965;-74
2023/03/17 05:45:46;;;;;;;1.57;1.27;;;8.30;97.70;;;;;;5067185;28;20473;-74
2023/03/17 05:48:14;;;;;;;1.50;1.30;;;8.40;97.60;;;;;;5054077;28;20839;-74
2023/03/17 05:50:41;;;;;;;1.53;1.20;;;8.40;97.70;;;;;;5054936;28;20868;-74
2023/03/17 05:53:08;;;;;;;1.60;1.37;;;8.40;97.60;;;;;;5045352;28;21031;-74
2023/03/17 05:55:35;;;;;;;1.50;1.20;;;8.40;97.40;;;;;;5061760;28;20472;-74
2023/03/17 05:58:03;;;;;;;1.50;1.20;;;8.40;97.40;;;;;;5042815;28;20481;-74
2023/03/17 06:00:32;;;;;;;1.50;1.20;;;8.40;97.40;;;;;;5063557;28;20653;-74
2023/03/17 06:02:59;;;;;;;1.57;1.27;;;8.40;97.40;;;;;;5048445;28;20493;-73
2023/03/17 06:05:27;;;;;;;1.50;1.20;;;8.40;97.30;;;;;;5057258;28;20461;-75
2023/03/17 06:07:54;;;;;;;1.57;1.20;;;8.40;97.30;;;;;;5050159;28;20493;-74
2023/03/17 06:10:20;;;;;;;1.50;1.20;;;8.40;97.30;;;;;;5063421;28;20514;-74
2023/03/17 06:12:47;;;;;;;1.50;1.20;;;8.40;97.30;;;;;;5067321;28;20491;-77
2023/03/17 06:15:15;;;;;;;1.50;1.20;;;8.50;97.30;;;;;;5060331;28;20934;-76
2023/03/17 06:17:42;;;;;;;1.50;1.20;;;8.50;97.30;;;;;;5066288;28;20480;-76
2023/03/17 06:20:11;;;;;;;1.60;1.30;;;8.50;97.20;;;;;;5064231;28;20988;-75
2023/03/17 06:22:40;;;;;;;1.50;1.20;;;8.50;97.30;;;;;;5043827;28;21125;-73
2023/03/17 06:25:08;;;;;;;1.50;1.20;;;8.50;97.30;;;;;;5062149;28;20475;-73
2023/03/17 06:27:36;;;;;;;1.50;1.20;;;8.50;97.30;;;;;;5066439;28;21003;-75
2023/03/17 06:30:03;;;;;;;1.80;1.70;;;8.50;97.30;;;;;;5061782;28;20540;-74
2023/03/17 06:32:30;;;;;;;1.50;1.20;;;8.60;97.40;;;;;;5044520;28;20539;-77
2023/03/17 06:34:57;;;;;;;1.50;1.20;;;8.60;97.20;;;;;;5059353;28;20468;-74
2023/03/17 06:37:24;;;;;;;1.60;1.30;;;8.60;97.40;;;;;;5045630;28;20564;-74
2023/03/17 06:39:52;;;;;;;1.50;1.17;;;8.60;97.40;;;;;;5061445;28;20481;-74
2023/03/17 06:42:19;;;;;;;1.50;1.10;;;8.70;97.20;;;;;;5054561;28;21041;-74
2023/03/17 06:44:46;;;;;;;1.50;1.20;;;8.70;97.20;;;;;;5059360;28;20909;-74
2023/03/17 06:47:13;;;;;;;1.50;1.20;;;8.90;96.90;;;;;;5055271;28;20481;-74
2023/03/17 06:49:40;;;;;;;1.50;1.23;;;8.90;96.50;;;;;;5066838;28;20560;-74
2023/03/17 06:52:08;;;;;;;1.50;1.10;;;9.00;96.00;;;;;;5047813;28;20563;-75
2023/03/17 06:54:35;;;;;;;1.57;1.20;;;9.10;95.70;;;;;;5058304;28;20462;-74
2023/03/17 06:57:03;;;;;;;1.50;1.10;;;9.10;95.70;;;;;;5045325;28;20540;-74
2023/03/17 06:59:31;;;;;;;1.50;1.10;;;9.20;95.60;;;;;;5057598;28;21362;-74
2023/03/17 07:01:58;;;;;;;1.60;1.40;;;9.20;95.60;;;;;;5059051;28;20476;-77
2023/03/17 07:04:25;;;;;;;1.50;1.10;;;9.20;95.50;;;;;;5068826;28;20538;-77
2023/03/17 07:06:52;;;;;;;1.50;1.10;;;9.30;95.40;;;;;;5053021;28;20548;-76
2023/03/17 07:09:18;;;;;;;1.50;1.20;;;9.40;95.40;;;;;;5069304;28;21025;-75
2023/03/17 07:11:45;;;;;;;1.50;1.10;;;9.40;95.10;;;;;;5048530;28;21064;-76
2023/03/17 07:14:13;;;;;;;1.50;1.20;;;9.50;94.90;;;;;;5062002;28;20472;-75
2023/03/17 07:16:40;;;;;;;1.50;1.10;;;9.60;94.70;;;;;;5053988;28;21054;-76
2023/03/17 07:19:07;;;;;;;1.50;1.20;;;9.70;94.50;;;;;;5066544;28;20486;-75
2023/03/17 07:21:34;;;;;;;1.50;1.20;;;9.90;94.10;;;;;;5052191;28;20497;-78
2023/03/17 07:24:01;;;;;;;1.50;1.10;;;10.10;93.30;;;;;;5061350;28;20472;-75
2023/03/17 07:26:28;;;;;;;1.50;1.20;;;10.20;92.60;;;;;;5051307;28;21068;-76
2023/03/17 07:28:54;;;;;;;1.50;1.20;;;10.40;92.30;;;;;;5060229;28;20469;-78
2023/03/17 07:31:24;;;;;;;1.60;1.20;;;10.50;91.80;;;;;;5051317;28;20520;-75
2023/03/17 07:33:50;;;;;;;1.53;1.20;;;10.60;91.30;;;;;;5060687;28;21310;-75
2023/03/17 07:36:17;;;;;;;1.53;1.20;;;10.70;91.50;;;;;;5051685;28;20500;-75
2023/03/17 07:38:44;;;;;;;1.50;1.10;;;10.90;91.00;;;;;;5070409;28;20528;-77
2023/03/17 07:41:11;;;;;;;1.50;1.10;;;11.00;90.50;;;;;;5054224;28;20885;-75
2023/03/17 07:43:38;;;;;;;1.60;1.10;;;11.10;89.80;;;;;;5069162;28;20470;-76
2023/03/17 07:46:05;;;;;;;1.50;1.10;;;11.20;89.80;;;;;;5049374;28;20511;-75
2023/03/17 07:48:35;;;;;;;1.50;1.00;;;11.20;89.40;;;;;;5059949;28;20739;-78
2023/03/17 07:51:02;;;;;;;1.50;1.10;;;11.30;89.30;;;;;;5049206;28;20798;-75
2023/03/17 07:53:28;;;;;;;1.50;1.00;;;11.40;88.60;;;;;;5058150;28;20462;-76
2023/03/17 07:55:55;;;;;;;1.50;1.10;;;11.40;88.70;;;;;;5049947;28;20465;-75
2023/03/17 07:58:22;;;;;;;1.50;1.00;;;11.40;88.70;;;;;;5058462;28;20865;-75
2023/03/17 08:00:48;;;;;;;1.50;1.00;;;11.40;88.60;;;;;;5047165;28;20497;-76
2023/03/17 08:03:15;;;;;;;1.53;1.10;;;11.40;89.00;;;;;;5057542;28;20496;-76
2023/03/17 08:05:44;;;;;;;1.50;1.07;;;11.50;89.20;;;;;;5056599;28;20840;-75
2023/03/17 08:08:11;;;;;;;1.50;1.10;;;11.50;88.70;;;;;;5063996;28;20533;-77
2023/03/17 08:10:38;;;;;;;1.50;1.10;;;11.50;89.00;;;;;;5061645;28;21291;-73
2023/03/17 08:13:05;;;;;;;1.50;1.10;;;11.50;88.60;;;;;;5049404;28;20773;-75
2023/03/17 08:15:32;;;;;;;1.50;1.10;;;11.60;88.80;;;;;;5062491;28;20519;-74
2023/03/17 08:17:59;;;;;;;1.50;1.13;;;11.60;88.60;;;;;;5048496;28;20481;-76
2023/03/17 08:20:26;;;;;;;1.50;1.00;;;11.70;89.00;;;;;;5061192;28;20564;-76
2023/03/17 08:22:55;;;;;;;1.50;1.10;;;11.80;88.20;;;;;;5048479;28;20791;-75
2023/03/17 08:25:23;;;;;;;1.50;1.10;;;11.90;87.30;;;;;;5062104;28;20556;-75
2023/03/17 08:27:50;;;;;;;1.50;1.00;;;11.90;87.30;;;;;;5050115;28;20975;-76
2023/03/17 08:30:17;;;;;;;1.70;1.30;;;12.00;87.10;;;;;;5065916;28;20992;-75
2023/03/17 08:32:45;;;;;;;1.50;1.10;;;12.00;87.10;;;;;;5051906;28;20481;-76
2023/03/17 08:35:14;;;;;;;1.50;1.00;;;12.00;86.70;;;;;;5064752;28;20527;-76
2023/03/17 08:37:41;;;;;;;1.50;1.00;;;12.00;86.90;;;;;;5052060;28;20503;-76
2023/03/17 08:40:12;;;;;;;1.60;1.47;;;12.00;87.80;;;;;;5065912;28;20599;-77
2023/03/17 08:42:39;;;;;;;1.50;1.00;;;12.10;87.80;;;;;;5051643;28;20492;-75
2023/03/17 08:45:08;;;;;;;1.50;1.00;;;12.20;87.10;;;;;;5065195;28;20472;-75
2023/03/17 08:47:36;;;;;;;1.50;1.07;;;12.20;86.70;;;;;;5050585;28;20512;-76
2023/03/17 08:50:04;;;;;;;1.50;1.10;;;12.20;87.30;;;;;;5065302;28;20483;-76
2023/03/17 08:52:31;;;;;;;1.50;1.10;;;12.20;86.70;;;;;;5050226;28;20582;-76
2023/03/17 08:54:58;;;;;;;1.50;1.10;;;12.10;87.30;;;;;;5062198;28;20563;-75
2023/03/17 08:57:26;;;;;;;1.50;1.00;;;12.20;87.20;;;;;;5052096;28;20938;-74
2023/03/17 08:59:54;;;;;;;1.50;1.03;;;12.20;87.10;;;;;;5064508;28;21111;-76
2023/03/17 09:02:21;;;;;;;1.50;1.10;;;12.20;86.80;;;;;;5051642;28;20481;-77
2023/03/17 09:04:48;;;;;;;1.50;1.00;;;12.30;87.00;;;;;;5062415;28;20472;-76
2023/03/17 09:07:15;;;;;;;1.50;1.00;;;12.50;87.20;;;;;;5053782;28;20513;-78
2023/03/17 09:09:42;;;;;;;1.50;1.00;;;12.70;86.50;;;;;;5062664;28;20864;-75
2023/03/17 09:12:10;;;;;;;1.50;1.00;;;12.90;86.10;;;;;;5052101;28;20486;-75
2023/03/17 09:14:39;;;;;;;1.50;1.03;;;13.10;85.10;;;;;;5061864;28;20466;-76
2023/03/17 09:17:07;;;;;;;1.50;1.00;;;13.30;85.10;;;;;;5051593;28;20680;-75
2023/03/17 09:19:34;;;;;;;1.50;1.00;;;13.60;84.20;;;;;;5062654;28;20493;-75
2023/03/17 09:22:01;;;;;;;1.50;1.10;;;13.70;83.10;;;;;;5051296;28;20512;-76
2023/03/17 09:24:28;;;;;;;1.50;1.00;;;13.90;82.90;;;;;;5062778;28;20860;-75
2023/03/17 09:26:58;;;;;;;1.50;1.00;;;14.00;83.10;;;;;;5051059;28;20520;-75
2023/03/17 09:29:26;;;;;;;1.50;0.90;;;14.10;82.90;;;;;;5063088;28;20515;-76
2023/03/17 09:31:54;;;;;;;1.50;1.00;;;14.20;82.70;;;;;;5047845;28;20486;-76
2023/03/17 09:34:21;;;;;;;1.50;1.00;;;14.40;82.60;;;;;;5063499;28;20470;-74
2023/03/17 09:36:48;;;;;;;1.50;1.00;;;14.40;82.00;;;;;;5051968;28;21002;-74
2023/03/17 09:39:14;;;;;;;1.50;1.10;;;14.50;81.80;;;;;;5062665;28;20492;-73
2023/03/17 09:42:05;;;;;;;1.50;1.00;;;14.50;81.70;;;;;;5051777;28;20555;-74
2023/03/17 09:44:50;;;;;;;1.50;1.10;;;14.40;81.30;;;;;;5060863;28;20527;-74
2023/03/17 09:47:39;;;;;;;1.50;1.00;;;14.40;81.60;;;;;;5047648;28;20493;-74
2023/03/17 09:50:13;;;;;;;1.50;1.00;;;14.50;81.80;;;;;;5063703;28;20612;-73
2023/03/17 09:52:40;;;;;;;1.50;1.00;;;14.60;81.10;;;;;;5064630;28;20484;-73
2023/03/17 09:55:13;;;;;;;1.50;1.00;;;14.60;81.10;;;;;;5063935;28;20569;-73
2023/03/17 09:57:40;;;;;;;1.50;1.00;;;14.80;81.20;;;;;;5051813;28;20935;-76
2023/03/17 10:00:14;;;;;;;1.50;0.97;;;14.90;81.20;;;;;;5057312;28;20498;-75
2023/03/17 10:02:43;;;;;;;1.50;1.00;;;15.10;80.40;;;;;;5049910;28;20498;-78
2023/03/17 10:05:19;;;;;;;1.50;1.10;;;15.10;80.60;;;;;;5056685;28;20469;-76
2023/03/17 10:07:53;;;;;;;1.50;1.10;;;15.20;80.50;;;;;;5050031;28;20582;-75
2023/03/17 10:10:28;;;;;;;1.50;1.10;;;15.40;80.40;;;;;;5061297;28;20484;-78
2023/03/17 10:13:05;;;;;;;1.50;1.00;;;15.60;80.20;;;;;;5046596;28;20595;-75
2023/03/17 10:15:37;;;;;;;1.50;0.90;;;15.70;79.70;;;;;;5058469;28;20499;-75
2023/03/17 10:18:12;;;;;;;1.50;0.90;;;15.80;79.60;;;;;;5051424;28;20964;-73
2023/03/17 10:20:46;;;;;;;1.50;0.90;;;15.80;79.70;;;;;;5063757;28;21021;-74
2023/03/17 10:23:18;;;;;;;1.50;0.93;;;15.70;79.50;;;;;;5046740;28;21035;-73
2023/03/17 10:25:45;;;;;;;1.50;0.93;;;15.70;79.40;;;;;;5059684;28;20711;-73
2023/03/17 10:28:23;;;;;;;1.50;1.00;;;15.60;79.20;;;;;;5044334;28;20575;-73
2023/03/17 10:30:50;;;;;;;1.50;1.00;;;15.70;79.20;;;;;;5048254;28;20842;-73
2023/03/17 10:33:18;;;;;;;1.50;0.90;;;15.70;79.50;;;;;;5060838;28;20465;-71
2023/03/17 10:35:46;;;;;;;1.50;1.00;;;15.80;79.10;;;;;;5062995;28;20492;-75
2023/03/17 10:38:18;;;;;;;1.50;1.00;;;15.90;78.70;;;;;;5046379;28;20485;-76
2023/03/17 10:40:47;;;;;;;1.50;0.90;;;16.00;78.70;;;;;;5060363;28;20493;-75
2023/03/17 10:43:19;;;;;;;1.50;1.00;;;16.00;77.60;;;;;;5051608;28;20488;-72
2023/03/17 10:45:59;;;;;;;1.50;1.00;;;16.10;77.50;;;;;;5059232;28;20461;-73
2023/03/17 10:48:28;;;;;;;1.50;0.90;;;16.20;77.50;;;;;;5045261;28;20485;-73
2023/03/17 10:50:58;;;;;;;1.50;1.00;;;16.30;77.50;;;;;;5049557;28;21262;-73
2023/03/17 10:53:29;;;;;;;1.53;1.20;;;16.40;77.20;;;;;;5061383;28;20830;-74
2023/03/17 10:55:59;;;;;;;1.43;0.90;;;16.70;77.50;;;;;;5053574;28;20457;-74
2023/03/17 10:58:37;;;;;;;1.50;1.00;;;16.80;76.70;;;;;;5060565;28;20504;-74
2023/03/17 11:01:08;;;;;;;1.50;1.00;;;17.00;77.40;;;;;;5047066;28;20503;-75
2023/03/17 11:03:39;;;;;;;1.50;1.00;;;17.30;75.80;;;;;;5060960;28;20461;-75
2023/03/17 11:06:08;;;;;;;1.50;1.00;;;17.50;76.10;;;;;;5052373;28;20461;-74
2023/03/17 11:08:39;;;;;;;1.50;0.90;;;17.80;75.00;;;;;;5061346;28;20460;-76
2023/03/17 11:11:08;;;;;;;1.50;0.90;;;17.90;74.20;;;;;;5050588;28;20952;-75
2023/03/17 11:13:35;;;;;;;1.50;1.00;;;18.00;73.70;;;;;;5075798;28;20885;-75
2023/03/17 11:16:10;;;;;;;1.50;0.90;;;17.90;73.90;;;;;;5051585;28;20461;-76
2023/03/17 11:18:40;;;;;;;1.50;0.90;;;17.90;74.00;;;;;;5061049;28;20464;-74
2023/03/17 11:21:10;;;;;;;1.50;1.00;;;17.80;74.40;;;;;;5051265;28;21041;-75
2023/03/17 11:23:50;;;;;;;1.50;0.93;;;17.80;74.90;;;;;;5058539;28;20473;-73
2023/03/17 11:26:33;;;;;;;1.50;0.90;;;18.10;75.10;;;;;;5052088;28;21120;-73
2023/03/17 11:29:21;;;;;;;1.50;1.00;;;18.30;73.70;;;;;;5059702;28;20464;-73
2023/03/17 11:31:56;;;;;;;1.50;0.90;;;18.50;74.10;;;;;;5053941;28;20545;-73
2023/03/17 11:34:35;;;;;;;1.50;0.90;;;18.50;72.20;;;;;;5068927;28;21052;-74
2023/03/17 11:37:10;;;;;;;1.50;0.93;;;18.40;73.30;;;;;;5049812;28;22105;-73
2023/03/17 11:39:49;;;;;;;1.50;1.00;;;18.30;72.70;;;;;;5061109;28;20489;-73
2023/03/17 11:42:21;;;;;;;1.50;1.00;;;18.30;72.80;;;;;;5049427;28;20484;-73
2023/03/17 11:45:15;;;;;;;1.50;0.90;;;18.20;73.50;;;;;;5059030;28;20468;-74
2023/03/17 11:48:16;;;;;;;1.50;0.90;;;18.20;73.20;;;;;;5052286;28;20489;-75
2023/03/17 11:50:55;;;;;;;1.50;0.90;;;18.20;74.00;;;;;;5056674;28;20950;-74
2023/03/17 11:53:41;;;;;;;1.60;1.47;;;18.10;74.00;;;;;;5050653;28;20481;-74
2023/03/17 11:56:14;;;;;;;1.47;0.90;;;18.10;74.20;;;;;;5053560;28;20483;-75
2023/03/17 11:58:44;;;;;;;1.50;0.90;;;17.90;73.90;;;;;;5071202;28;20501;-75
2023/03/17 12:01:14;;;;;;;1.50;0.90;;;17.80;74.70;;;;;;5056345;28;21249;-75
2023/03/17 12:03:44;;;;;;;1.50;1.10;;;17.70;74.30;;;;;;5065504;28;20476;-73
2023/03/17 12:06:19;;;;;;;1.50;0.90;;;17.60;74.40;;;;;;5053704;28;20558;-73
2023/03/17 12:08:52;;;;;;;1.50;0.90;;;17.50;74.70;;;;;;5068955;28;20461;-73
2023/03/17 12:11:24;;;;;;;1.47;0.90;;;17.40;75.00;;;;;;5056362;28;20491;-73
2023/03/17 12:13:57;;;;;;;1.50;0.90;;;17.40;75.20;;;;;;5073410;28;20929;-73
2023/03/17 12:16:32;;;;;;;1.50;0.90;;;17.60;76.20;;;;;;5059093;28;20835;-73
2023/03/17 12:19:10;;;;;;;2.20;1.67;;;17.70;75.60;;;;;;5071823;28;20465;-73
2023/03/17 12:21:45;;;;;;;1.43;0.90;;;17.80;75.70;;;;;;5052776;28;21056;-73
2023/03/17 12:24:18;;;;;;;1.50;1.00;;;17.90;74.80;;;;;;5062503;28;20525;-72
2023/03/17 12:26:54;;;;;;;1.50;0.90;;;17.80;74.30;;;;;;5045683;28;21101;-73
2023/03/17 12:29:30;;;;;;;1.47;0.93;;;17.80;74.30;;;;;;5056564;28;21253;-74
2023/03/17 12:32:04;;;;;;;1.47;0.90;;;17.80;74.50;;;;;;5060573;28;20553;-73
2023/03/17 12:34:37;;;;;;;2.03;1.53;;;17.90;74.50;;;;;;5063889;28;20487;-73
2023/03/17 12:37:05;;;;;;;1.47;0.90;;;17.90;74.50;;;;;;5060441;28;20488;-73
2023/03/17 12:39:37;;;;;;;1.43;0.90;;;18.00;74.90;;;;;;5065263;28;20500;-74
2023/03/17 12:42:16;;;;;;;1.50;1.00;;;18.10;74.30;;;;;;5057790;28;20488;-73
2023/03/17 12:45:15;;;;;;;1.47;0.90;;;18.10;74.00;;;;;;5063747;28;20461;-74
2023/03/17 12:47:57;;;;;;;1.50;1.00;;;18.10;74.00;;;;;;5046472;28;20481;-75
2023/03/17 12:50:40;;;;;;;1.50;0.90;;;18.10;74.60;;;;;;5060955;28;20477;-73
2023/03/17 12:53:33;;;;;;;1.43;0.93;;;18.10;73.90;;;;;;5039590;28;20989;-73
2023/03/17 12:56:16;;;;;;;1.50;0.90;;;18.10;74.60;;;;;;5036717;28;20915;-73
2023/03/17 12:58:45;;;;;;;1.50;1.00;;;18.20;74.70;;;;;;5070524;28;20457;-79
2023/03/17 13:01:38;;;;;;;1.50;0.90;;;18.10;74.10;;;;;;5051228;28;20736;-74
2023/03/17 13:04:15;;;;;;;1.50;1.00;;;18.20;74.10;;;;;;5056814;28;20461;-76